Time;durP1;ratioP1;P1;durP2;ratioP2;P2;SDS_P1;SDS_P2;PMS_P1;PMS_P2;Temp;Humidity;BMP_temperature;BMP_pressure;BME280_temperature;BME280_humidity;BME280_pressure;Samples;Min_cycle;Max_cycle;Signal;HPM_P1;HPM_P2
2020/12/30 00:00:07;;;;;;;5.97;5.13;;;;;;;;;;5057358;28;20423;-59
2020/12/30 00:02:34;;;;;;;7.17;5.50;;;;;;;;;;5061015;28;20869;-59
2020/12/30 00:05:00;;;;;;;6.47;5.53;;;;;;;;;;5067460;28;20455;-59
2020/12/30 00:07:26;;;;;;;5.63;5.03;;;;;;;;;;5048876;28;20541;-60
2020/12/30 00:09:52;;;;;;;5.73;5.13;;;;;;;;;;5057296;28;20282;-60
2020/12/30 00:12:18;;;;;;;6.73;5.37;;;;;;;;;;5070860;28;20178;-59
2020/12/30 00:14:45;;;;;;;6.03;4.93;;;;;;;;;;5069111;28;20196;-59
2020/12/30 00:17:11;;;;;;;7.30;5.90;;;;;;;;;;5033004;28;20514;-62
2020/12/30 00:19:37;;;;;;;7.57;4.77;;;;;;;;;;5050811;28;20412;-59
2020/12/30 00:22:06;;;;;;;6.97;5.43;;;;;;;;;;5033540;28;20977;-59
2020/12/30 00:24:33;;;;;;;6.10;4.20;;;;;;;;;;5050916;28;20446;-59
2020/12/30 00:26:59;;;;;;;7.00;5.40;;;;;;;;;;5064183;28;20949;-58
2020/12/30 00:29:25;;;;;;;7.03;4.87;;;;;;;;;;5066476;28;20779;-57
2020/12/30 00:31:51;;;;;;;7.17;5.10;;;;;;;;;;5048757;28;20984;-60
2020/12/30 00:34:17;;;;;;;5.27;4.30;;;;;;;;;;5051930;28;20435;-58
2020/12/30 00:36:43;;;;;;;5.23;4.73;;;;;;;;;;5032684;28;20426;-59
2020/12/30 00:39:09;;;;;;;5.20;4.40;;;;;;;;;;5050510;28;20427;-61
2020/12/30 00:41:35;;;;;;;7.73;4.90;;;;;;;;;;5051674;28;20188;-59
2020/12/30 00:44:01;;;;;;;6.37;4.87;;;;;;;;;;5053325;28;20450;-59
2020/12/30 00:46:27;;;;;;;7.07;5.13;;;;;;;;;;5061131;28;20192;-60
2020/12/30 00:48:53;;;;;;;5.00;4.23;;;;;;;;;;5055940;28;20423;-59
2020/12/30 00:51:19;;;;;;;6.23;4.53;;;;;;;;;;5051736;28;20181;-58
2020/12/30 00:53:45;;;;;;;5.83;4.63;;;;;;;;;;5052688;28;20604;-59
2020/12/30 00:56:12;;;;;;;4.33;3.93;;;;;;;;;;5052330;28;20549;-61
2020/12/30 00:58:38;;;;;;;5.63;4.27;;;;;;;;;;5068402;28;20409;-59
2020/12/30 01:01:05;;;;;;;6.57;5.03;;;;;;;;;;5049933;28;20412;-59
2020/12/30 01:03:31;;;;;;;6.37;4.80;;;;;;;;;;5062834;28;20519;-59
2020/12/30 01:05:58;;;;;;;5.57;4.67;;;;;;;;;;5061744;28;20479;-59
2020/12/30 01:08:24;;;;;;;5.47;4.50;;;;;;;;;;5050160;28;20486;-59
2020/12/30 01:10:50;;;;;;;5.00;4.50;;;;;;;;;;5062128;28;20497;-59
2020/12/30 01:13:16;;;;;;;6.10;4.73;;;;;;;;;;5045329;28;20410;-59
2020/12/30 01:15:42;;;;;;;6.70;4.50;;;;;;;;;;5053188;28;20169;-59
2020/12/30 01:18:08;;;;;;;6.77;5.30;;;;;;;;;;5053758;28;20420;-58
2020/12/30 01:20:35;;;;;;;6.20;4.47;;;;;;;;;;5057424;28;20177;-58
2020/12/30 01:23:01;;;;;;;6.33;4.47;;;;;;;;;;5050800;28;20457;-59
2020/12/30 01:25:27;;;;;;;5.93;5.30;;;;;;;;;;5054434;28;20442;-60
2020/12/30 01:27:53;;;;;;;5.77;4.70;;;;;;;;;;5050622;28;20936;-60
2020/12/30 01:30:19;;;;;;;6.50;4.97;;;;;;;;;;5050841;28;20193;-59
2020/12/30 01:32:45;;;;;;;5.50;5.00;;;;;;;;;;5050444;28;20426;-60
2020/12/30 01:35:12;;;;;;;6.77;4.97;;;;;;;;;;5056621;28;20427;-61
2020/12/30 01:37:38;;;;;;;6.13;4.50;;;;;;;;;;5056224;28;20234;-59
2020/12/30 01:40:04;;;;;;;5.20;4.20;;;;;;;;;;5051759;28;20424;-60
2020/12/30 01:42:51;;;;;;;5.90;5.10;;;;;;;;;;5050738;28;20425;-58
2020/12/30 01:45:17;;;;;;;8.43;5.20;;;;;;;;;;5050240;28;20993;-58
2020/12/30 01:47:44;;;;;;;5.13;4.63;;;;;;;;;;5033320;28;20478;-59
2020/12/30 01:50:12;;;;;;;5.87;4.53;;;;;;;;;;5064713;28;20588;-59
2020/12/30 01:52:41;;;;;;;5.80;4.67;;;;;;;;;;5064935;28;20462;-59
2020/12/30 01:55:07;;;;;;;5.27;4.70;;;;;;;;;;5055388;28;20412;-59
2020/12/30 01:57:33;;;;;;;5.90;4.97;;;;;;;;;;5053330;28;20412;-60
2020/12/30 01:59:59;;;;;;;5.83;4.70;;;;;;;;;;5061539;28;20424;-59
2020/12/30 02:02:29;;;;;;;7.13;4.43;;;;;;;;;;5036008;28;20498;-59
2020/12/30 02:04:56;;;;;;;6.23;4.87;;;;;;;;;;5036870;28;20451;-59
2020/12/30 02:07:25;;;;;;;6.57;4.90;;;;;;;;;;5059445;28;20823;-60
2020/12/30 02:09:52;;;;;;;7.43;4.80;;;;;;;;;;5055291;28;20431;-59
2020/12/30 02:12:18;;;;;;;7.67;4.73;;;;;;;;;;5040036;28;20776;-59
2020/12/30 02:14:44;;;;;;;6.47;4.43;;;;;;;;;;5054538;28;21255;-58
2020/12/30 02:17:13;;;;;;;6.47;5.40;;;;;;;;;;5055253;28;20431;-59
2020/12/30 02:19:40;;;;;;;5.70;5.00;;;;;;;;;;5054654;28;20913;-59
2020/12/30 02:22:06;;;;;;;7.23;5.30;;;;;;;;;;5057039;28;20518;-59
2020/12/30 02:24:33;;;;;;;6.23;4.80;;;;;;;;;;5047905;28;20266;-61
2020/12/30 02:27:00;;;;;;;6.53;5.23;;;;;;;;;;5054111;28;20945;-60
2020/12/30 02:29:26;;;;;;;5.43;4.27;;;;;;;;;;5063880;28;20468;-59
2020/12/30 02:31:52;;;;;;;5.67;4.97;;;;;;;;;;5069660;28;20461;-59
2020/12/30 02:34:18;;;;;;;5.40;4.27;;;;;;;;;;5069607;28;20427;-60
2020/12/30 02:36:44;;;;;;;7.33;5.37;;;;;;;;;;5059005;28;20199;-59
2020/12/30 02:39:10;;;;;;;6.20;5.13;;;;;;;;;;5053620;28;20431;-59
2020/12/30 02:41:37;;;;;;;6.40;5.10;;;;;;;;;;5067051;28;20450;-58
2020/12/30 02:44:03;;;;;;;5.00;4.50;;;;;;;;;;5061910;28;20551;-62
2020/12/30 02:46:29;;;;;;;7.03;5.17;;;;;;;;;;5067771;28;20778;-59
2020/12/30 02:48:55;;;;;;;6.33;5.33;;;;;;;;;;5055241;28;20493;-59
2020/12/30 02:51:21;;;;;;;6.37;4.57;;;;;;;;;;5071153;28;20180;-60
2020/12/30 02:53:48;;;;;;;6.53;5.17;;;;;;;;;;5039501;28;20463;-60
2020/12/30 02:56:14;;;;;;;8.63;5.30;;;;;;;;;;5069909;28;20426;-59
2020/12/30 02:58:40;;;;;;;6.33;5.03;;;;;;;;;;5069264;28;20187;-58
2020/12/30 03:01:13;;;;;;;5.47;4.53;;;;;;;;;;5056775;28;20419;-59
2020/12/30 03:03:40;;;;;;;6.93;4.73;;;;;;;;;;5052778;28;20487;-59
2020/12/30 03:06:06;;;;;;;5.30;4.77;;;;;;;;;;5059963;28;20423;-59
2020/12/30 03:08:32;;;;;;;5.13;4.20;;;;;;;;;;5072396;28;20410;-58
2020/12/30 03:10:58;;;;;;;6.63;5.13;;;;;;;;;;5056936;28;20423;-59
2020/12/30 03:13:24;;;;;;;5.90;5.00;;;;;;;;;;5052960;28;20455;-59
2020/12/30 03:15:50;;;;;;;7.37;4.73;;;;;;;;;;5063957;28;20503;-59
2020/12/30 03:18:16;;;;;;;7.53;5.27;;;;;;;;;;5067077;28;20456;-59
2020/12/30 03:20:42;;;;;;;5.87;5.00;;;;;;;;;;5065505;28;20423;-59
2020/12/30 03:23:08;;;;;;;6.47;5.07;;;;;;;;;;5054356;28;20457;-59
2020/12/30 03:25:35;;;;;;;7.80;5.27;;;;;;;;;;5070999;28;20446;-59
2020/12/30 03:28:01;;;;;;;7.37;5.03;;;;;;;;;;5046718;28;20510;-59
2020/12/30 03:30:27;;;;;;;5.50;4.87;;;;;;;;;;5056771;28;20521;-58
2020/12/30 03:32:53;;;;;;;5.80;4.80;;;;;;;;;;5061015;28;20906;-64
2020/12/30 03:35:20;;;;;;;5.53;4.63;;;;;;;;;;5053626;28;20767;-59
2020/12/30 03:37:46;;;;;;;5.83;4.93;;;;;;;;;;5039070;28;20454;-60
2020/12/30 03:40:12;;;;;;;6.17;5.07;;;;;;;;;;5063541;28;20985;-59
2020/12/30 03:42:38;;;;;;;5.80;5.03;;;;;;;;;;5052293;28;20922;-59
2020/12/30 03:45:04;;;;;;;6.30;4.87;;;;;;;;;;5041191;28;20473;-60
2020/12/30 03:47:30;;;;;;;6.50;5.60;;;;;;;;;;5053503;28;20439;-59
2020/12/30 03:49:57;;;;;;;7.07;5.07;;;;;;;;;;5052140;28;20502;-60
2020/12/30 03:52:23;;;;;;;9.30;5.20;;;;;;;;;;5052852;28;20463;-60
2020/12/30 03:54:49;;;;;;;6.50;5.20;;;;;;;;;;5056970;28;20437;-60
2020/12/30 03:57:15;;;;;;;7.13;5.57;;;;;;;;;;5069663;28;20480;-59
2020/12/30 03:59:41;;;;;;;7.60;5.27;;;;;;;;;;5066233;28;20419;-58
2020/12/30 04:02:07;;;;;;;10.03;5.67;;;;;;;;;;5051690;28;20544;-59
2020/12/30 04:04:33;;;;;;;6.93;5.53;;;;;;;;;;5053704;28;20814;-59
2020/12/30 04:06:59;;;;;;;7.77;5.70;;;;;;;;;;5070458;28;20809;-60
2020/12/30 04:09:25;;;;;;;7.27;5.50;;;;;;;;;;5058395;28;20423;-59
2020/12/30 04:11:51;;;;;;;7.47;5.90;;;;;;;;;;5051801;28;20206;-58
2020/12/30 04:14:18;;;;;;;6.33;5.30;;;;;;;;;;5055040;28;20973;-59
2020/12/30 04:16:44;;;;;;;7.03;5.53;;;;;;;;;;5064126;28;20674;-60
2020/12/30 04:19:10;;;;;;;7.80;5.40;;;;;;;;;;5050649;28;20462;-59
2020/12/30 04:21:37;;;;;;;6.70;5.10;;;;;;;;;;5070514;28;20419;-58
2020/12/30 04:24:03;;;;;;;7.53;5.43;;;;;;;;;;5070817;28;20195;-58
2020/12/30 04:26:29;;;;;;;7.47;5.90;;;;;;;;;;5062256;28;20435;-61
2020/12/30 04:28:55;;;;;;;7.23;6.00;;;;;;;;;;5063523;28;20422;-59
2020/12/30 04:31:21;;;;;;;9.30;6.07;;;;;;;;;;5051473;28;20443;-59
2020/12/30 04:33:47;;;;;;;7.47;6.50;;;;;;;;;;5069526;28;20437;-59
2020/12/30 04:36:14;;;;;;;7.50;6.43;;;;;;;;;;5069435;28;21106;-60
2020/12/30 04:38:40;;;;;;;9.13;6.57;;;;;;;;;;5034385;28;20420;-59
2020/12/30 04:41:11;;;;;;;8.13;5.97;;;;;;;;;;5065658;28;20430;-59
2020/12/30 04:43:38;;;;;;;8.80;6.43;;;;;;;;;;5066701;28;20462;-58
2020/12/30 04:46:04;;;;;;;9.57;6.33;;;;;;;;;;5052116;28;20898;-60
2020/12/30 04:48:32;;;;;;;7.77;6.07;;;;;;;;;;5032848;28;20885;-59
2020/12/30 04:50:58;;;;;;;7.03;5.73;;;;;;;;;;5065344;28;20437;-59
2020/12/30 04:53:24;;;;;;;6.13;5.50;;;;;;;;;;5058973;28;20506;-59
2020/12/30 04:55:51;;;;;;;9.30;6.50;;;;;;;;;;5051316;28;20513;-58
2020/12/30 04:58:18;;;;;;;6.57;5.67;;;;;;;;;;5051147;28;20439;-59
2020/12/30 05:00:45;;;;;;;8.10;6.40;;;;;;;;;;5056298;28;20785;-59
2020/12/30 05:03:12;;;;;;;9.00;6.40;;;;;;;;;;5032397;28;20472;-59
2020/12/30 05:05:38;;;;;;;9.50;6.57;;;;;;;;;;5062245;28;20431;-59
2020/12/30 05:08:07;;;;;;;9.43;6.30;;;;;;;;;;5048891;28;20412;-59
2020/12/30 05:10:33;;;;;;;9.20;6.63;;;;;;;;;;5067066;28;20447;-59
2020/12/30 05:12:59;;;;;;;7.73;6.43;;;;;;;;;;5068255;28;20445;-59
2020/12/30 05:15:25;;;;;;;7.40;6.33;;;;;;;;;;5059312;28;20431;-60
2020/12/30 05:17:52;;;;;;;10.60;6.40;;;;;;;;;;5058806;28;20265;-59
2020/12/30 05:20:18;;;;;;;8.43;6.27;;;;;;;;;;5063113;28;20519;-59
2020/12/30 05:22:44;;;;;;;6.93;6.20;;;;;;;;;;5051398;28;20944;-60
2020/12/30 05:25:11;;;;;;;8.60;7.33;;;;;;;;;;5057176;28;20573;-60
2020/12/30 05:27:37;;;;;;;6.50;5.83;;;;;;;;;;5047196;28;20489;-59
2020/12/30 05:30:03;;;;;;;8.50;6.80;;;;;;;;;;5057787;28;20948;-58
2020/12/30 05:32:29;;;;;;;8.23;7.33;;;;;;;;;;5061226;28;20423;-59
2020/12/30 05:34:55;;;;;;;10.17;6.77;;;;;;;;;;5055086;28;20454;-59
2020/12/30 05:37:35;;;;;;;7.73;6.93;;;;;;;;;;5054989;28;20477;-61
2020/12/30 05:40:02;;;;;;;9.10;7.37;;;;;;;;;;5057793;28;20180;-59
2020/12/30 05:42:28;;;;;;;8.03;7.23;;;;;;;;;;5071661;28;20422;-61
2020/12/30 05:44:55;;;;;;;8.10;6.70;;;;;;;;;;5059027;28;20985;-61
2020/12/30 05:47:25;;;;;;;9.23;7.67;;;;;;;;;;5055770;28;20506;-59
2020/12/30 05:49:52;;;;;;;8.90;7.53;;;;;;;;;;5059850;28;20425;-61
2020/12/30 05:52:19;;;;;;;10.07;8.10;;;;;;;;;;5062737;28;20418;-59
2020/12/30 05:54:46;;;;;;;9.13;7.53;;;;;;;;;;5041031;28;20430;-60
2020/12/30 05:57:24;;;;;;;12.03;7.67;;;;;;;;;;5069717;28;20189;-60
2020/12/30 05:59:54;;;;;;;8.77;7.50;;;;;;;;;;5064007;28;20522;-60
2020/12/30 06:02:22;;;;;;;9.10;6.77;;;;;;;;;;5054247;28;20961;-59
2020/12/30 06:04:49;;;;;;;10.17;8.00;;;;;;;;;;5054247;28;20451;-60
2020/12/30 06:07:17;;;;;;;8.80;7.20;;;;;;;;;;5054425;28;20411;-59
2020/12/30 06:09:49;;;;;;;10.00;7.77;;;;;;;;;;5060179;28;20897;-58
2020/12/30 06:12:15;;;;;;;8.77;7.50;;;;;;;;;;5069961;28;20497;-59
2020/12/30 06:14:41;;;;;;;8.77;7.80;;;;;;;;;;5075076;28;20422;-59
2020/12/30 06:17:13;;;;;;;9.30;7.03;;;;;;;;;;5061375;28;20442;-59
2020/12/30 06:19:43;;;;;;;9.20;7.27;;;;;;;;;;5041903;28;20520;-59
2020/12/30 06:22:12;;;;;;;9.70;7.33;;;;;;;;;;5069506;28;20750;-58
2020/12/30 06:24:38;;;;;;;9.50;7.47;;;;;;;;;;5059220;28;20501;-60
2020/12/30 06:27:07;;;;;;;8.00;7.20;;;;;;;;;;5069788;28;20435;-61
2020/12/30 06:29:33;;;;;;;9.07;7.17;;;;;;;;;;5068192;28;20553;-59
2020/12/30 06:31:59;;;;;;;12.20;7.27;;;;;;;;;;5045361;28;20778;-59
2020/12/30 06:34:25;;;;;;;9.43;7.73;;;;;;;;;;5065396;28;20449;-59
2020/12/30 06:37:02;;;;;;;8.50;7.67;;;;;;;;;;5035376;28;20934;-59
2020/12/30 06:39:28;;;;;;;10.20;7.77;;;;;;;;;;5051459;28;20458;-59
2020/12/30 06:42:01;;;;;;;8.43;7.53;;;;;;;;;;5042529;28;20469;-59
2020/12/30 06:44:43;;;;;;;9.57;7.67;;;;;;;;;;5068653;28;20449;-59
2020/12/30 06:47:10;;;;;;;9.33;7.40;;;;;;;;;;5058097;28;20426;-59
2020/12/30 06:49:36;;;;;;;11.60;8.53;;;;;;;;;;5072522;28;20454;-59
2020/12/30 06:52:03;;;;;;;12.53;7.40;;;;;;;;;;5044148;28;20420;-59
2020/12/30 06:54:45;;;;;;;9.73;8.00;;;;;;;;;;5052755;28;20467;-59
2020/12/30 06:57:31;;;;;;;11.90;8.03;;;;;;;;;;5071199;28;20423;-59
2020/12/30 06:59:57;;;;;;;8.80;7.70;;;;;;;;;;5060103;28;20538;-59
2020/12/30 07:02:23;;;;;;;10.77;8.37;;;;;;;;;;5069718;28;21013;-59
2020/12/30 07:05:00;;;;;;;9.50;7.60;;;;;;;;;;5070862;28;20466;-59
2020/12/30 07:07:27;;;;;;;9.87;7.60;;;;;;;;;;5052199;28;20412;-59
2020/12/30 07:09:53;;;;;;;9.40;7.97;;;;;;;;;;5056131;28;20816;-58
2020/12/30 07:12:20;;;;;;;10.33;8.70;;;;;;;;;;5071102;28;20480;-59
2020/12/30 07:14:46;;;;;;;10.20;7.90;;;;;;;;;;5051625;28;20185;-59
2020/12/30 07:17:12;;;;;;;10.27;7.83;;;;;;;;;;5058274;28;20450;-59
2020/12/30 07:19:40;;;;;;;11.50;8.27;;;;;;;;;;5057345;28;20427;-59
2020/12/30 07:22:07;;;;;;;9.77;8.27;;;;;;;;;;5033710;28;20980;-59
2020/12/30 07:24:39;;;;;;;11.07;8.40;;;;;;;;;;5054572;28;20560;-58
2020/12/30 07:27:07;;;;;;;12.23;8.63;;;;;;;;;;5070010;28;20494;-61
2020/12/30 07:29:33;;;;;;;11.27;8.90;;;;;;;;;;5059926;28;20419;-59
2020/12/30 07:32:00;;;;;;;10.03;8.23;;;;;;;;;;5051415;28;20416;-59
2020/12/30 07:34:28;;;;;;;12.67;8.37;;;;;;;;;;5051671;28;20906;-61
2020/12/30 07:36:57;;;;;;;11.57;7.97;;;;;;;;;;5053479;28;20438;-59
2020/12/30 07:39:32;;;;;;;10.47;7.67;;;;;;;;;;5052006;28;20486;-58
2020/12/30 07:41:58;;;;;;;10.60;8.30;;;;;;;;;;5063921;28;20488;-59
2020/12/30 07:44:25;;;;;;;10.90;8.33;;;;;;;;;;5063696;28;20459;-59
2020/12/30 07:46:51;;;;;;;10.63;8.93;;;;;;;;;;5043755;28;20181;-59
2020/12/30 07:49:20;;;;;;;12.70;9.40;;;;;;;;;;5071029;28;20464;-60
2020/12/30 07:51:57;;;;;;;12.03;9.27;;;;;;;;;;5073155;28;20414;-57
2020/12/30 07:54:24;;;;;;;12.03;8.97;;;;;;;;;;5070212;28;20414;-56
2020/12/30 07:56:50;;;;;;;12.23;9.00;;;;;;;;;;5052813;28;20473;-56
2020/12/30 07:59:23;;;;;;;10.50;8.17;;;;;;;;;;5049486;28;20808;-56
2020/12/30 08:01:53;;;;;;;11.47;8.70;;;;;;;;;;5036525;28;20479;-56
2020/12/30 08:04:19;;;;;;;11.17;9.37;;;;;;;;;;5063630;28;20446;-56
2020/12/30 08:06:46;;;;;;;11.67;7.63;;;;;;;;;;5038817;28;20423;-57
2020/12/30 08:09:16;;;;;;;14.13;9.83;;;;;;;;;;5042816;28;20420;-56
2020/12/30 08:11:52;;;;;;;14.43;9.00;;;;;;;;;;5065598;28;20453;-57
2020/12/30 08:14:19;;;;;;;11.90;9.10;;;;;;;;;;5040387;28;20438;-56
2020/12/30 08:16:52;;;;;;;11.53;9.37;;;;;;;;;;5050757;28;20484;-57
2020/12/30 08:19:27;;;;;;;12.23;9.27;;;;;;;;;;5050433;28;20817;-56
2020/12/30 08:22:06;;;;;;;11.70;8.70;;;;;;;;;;5032477;28;20412;-56
2020/12/30 08:24:33;;;;;;;11.37;8.67;;;;;;;;;;5038405;28;20497;-56
2020/12/30 08:26:59;;;;;;;10.40;9.23;;;;;;;;;;5050032;28;20422;-56
2020/12/30 08:29:33;;;;;;;13.47;10.13;;;;;;;;;;5033446;28;20428;-56
2020/12/30 08:32:01;;;;;;;11.43;8.87;;;;;;;;;;5033520;28;20411;-56
2020/12/30 08:34:29;;;;;;;11.47;8.83;;;;;;;;;;5058104;28;20458;-56
2020/12/30 08:37:02;;;;;;;12.10;9.77;;;;;;;;;;5052289;28;20518;-58
2020/12/30 08:39:29;;;;;;;13.03;9.87;;;;;;;;;;5050604;28;20410;-56
2020/12/30 08:41:58;;;;;;;12.63;10.23;;;;;;;;;;5061329;28;20476;-57
2020/12/30 08:44:25;;;;;;;13.30;10.13;;;;;;;;;;5064036;28;20470;-56
2020/12/30 08:46:54;;;;;;;13.80;9.70;;;;;;;;;;5055518;28;20523;-56
2020/12/30 08:49:21;;;;;;;11.77;10.23;;;;;;;;;;5056991;28;20412;-56
2020/12/30 08:51:49;;;;;;;14.23;10.53;;;;;;;;;;5059051;28;20424;-56
2020/12/30 08:54:16;;;;;;;13.00;10.13;;;;;;;;;;5040678;28;20439;-57
2020/12/30 08:56:43;;;;;;;13.83;10.07;;;;;;;;;;5059954;28;20422;-57
2020/12/30 08:59:09;;;;;;;13.00;9.90;;;;;;;;;;5044354;28;20423;-56
2020/12/30 09:01:35;;;;;;;12.27;9.63;;;;;;;;;;5032637;28;20562;-57
2020/12/30 09:04:11;;;;;;;12.07;9.27;;;;;;;;;;5056112;28;20984;-56
2020/12/30 09:06:37;;;;;;;13.73;10.10;;;;;;;;;;5065665;28;20423;-57
2020/12/30 09:09:19;;;;;;;19.80;8.70;;;;;;;;;;5037054;28;20407;-56
2020/12/30 09:11:46;;;;;;;13.40;9.17;;;;;;;;;;5063215;28;20464;-56
2020/12/30 09:14:13;;;;;;;13.83;9.90;;;;;;;;;;5059009;28;20439;-58
2020/12/30 09:17:01;;;;;;;13.07;10.03;;;;;;;;;;5033143;28;20968;-56
2020/12/30 09:19:27;;;;;;;15.53;10.93;;;;;;;;;;5051066;28;20480;-56
2020/12/30 09:22:05;;;;;;;12.03;9.43;;;;;;;;;;5053997;28;20422;-58
2020/12/30 09:24:35;;;;;;;13.67;11.17;;;;;;;;;;5031529;28;20485;-56
2020/12/30 09:27:14;;;;;;;11.97;9.63;;;;;;;;;;5036645;28;20476;-56
2020/12/30 09:29:40;;;;;;;14.40;10.00;;;;;;;;;;5058573;28;20932;-58
2020/12/30 09:32:06;;;;;;;15.17;9.97;;;;;;;;;;5059337;28;20498;-56
2020/12/30 09:34:32;;;;;;;12.40;9.77;;;;;;;;;;5052013;28;20188;-56
2020/12/30 09:36:59;;;;;;;12.57;9.87;;;;;;;;;;5042597;28;20223;-57
2020/12/30 09:39:27;;;;;;;13.33;9.97;;;;;;;;;;5048217;28;20205;-56
2020/12/30 09:42:01;;;;;;;16.20;10.83;;;;;;;;;;5056944;28;20499;-56
2020/12/30 09:44:27;;;;;;;14.47;10.43;;;;;;;;;;5036900;28;20462;-56
2020/12/30 09:46:55;;;;;;;14.30;10.70;;;;;;;;;;5064781;28;20822;-56
2020/12/30 09:49:21;;;;;;;11.47;9.60;;;;;;;;;;5042840;28;20794;-56
2020/12/30 09:51:53;;;;;;;13.77;10.10;;;;;;;;;;5062106;28;20419;-56
2020/12/30 09:54:19;;;;;;;14.20;10.13;;;;;;;;;;5039680;28;20806;-56
2020/12/30 09:56:48;;;;;;;11.83;9.93;;;;;;;;;;5050717;28;20891;-56
2020/12/30 09:59:20;;;;;;;13.77;9.93;;;;;;;;;;5056262;28;20453;-56
2020/12/30 10:01:46;;;;;;;14.57;10.57;;;;;;;;;;5061630;28;20498;-57
2020/12/30 10:04:12;;;;;;;17.07;12.67;;;;;;;;;;5058398;28;20454;-57
2020/12/30 10:06:38;;;;;;;19.37;11.87;;;;;;;;;;5063471;28;20422;-59
2020/12/30 10:09:04;;;;;;;17.13;11.37;;;;;;;;;;5057013;28;20234;-56
2020/12/30 10:11:30;;;;;;;16.77;11.97;;;;;;;;;;5059199;28;20419;-56
2020/12/30 10:13:56;;;;;;;14.93;11.53;;;;;;;;;;5059103;28;20582;-57
2020/12/30 10:16:22;;;;;;;17.63;11.67;;;;;;;;;;5063368;28;20207;-56
2020/12/30 10:18:48;;;;;;;15.20;11.97;;;;;;;;;;5043737;28;20267;-58
2020/12/30 10:21:14;;;;;;;18.27;12.53;;;;;;;;;;5056608;28;20173;-57
2020/12/30 10:23:40;;;;;;;20.17;11.10;;;;;;;;;;5046396;28;20183;-56
2020/12/30 10:26:07;;;;;;;16.70;11.47;;;;;;;;;;5067178;28;20201;-56
2020/12/30 10:28:33;;;;;;;13.30;10.83;;;;;;;;;;5063156;28;20434;-58
2020/12/30 10:30:59;;;;;;;19.57;11.40;;;;;;;;;;5062324;28;20455;-58
2020/12/30 10:33:25;;;;;;;13.70;10.70;;;;;;;;;;5061789;28;20433;-56
2020/12/30 10:35:51;;;;;;;12.67;10.37;;;;;;;;;;5061076;28;20177;-56
2020/12/30 10:38:17;;;;;;;16.47;11.90;;;;;;;;;;5062080;28;20181;-56
2020/12/30 10:40:43;;;;;;;15.37;12.40;;;;;;;;;;5057464;28;20419;-56
2020/12/30 10:43:09;;;;;;;16.77;11.40;;;;;;;;;;5051788;28;20257;-56
2020/12/30 10:45:35;;;;;;;16.90;11.30;;;;;;;;;;5044045;28;20200;-56
2020/12/30 10:48:01;;;;;;;15.30;11.23;;;;;;;;;;5061316;28;20173;-56
2020/12/30 10:50:27;;;;;;;15.00;10.77;;;;;;;;;;5066324;28;20488;-56
2020/12/30 10:52:53;;;;;;;15.10;11.53;;;;;;;;;;5072909;28;20472;-56
2020/12/30 10:55:19;;;;;;;16.03;12.50;;;;;;;;;;5055473;28;20431;-56
2020/12/30 10:57:45;;;;;;;15.27;11.70;;;;;;;;;;5055338;28;20412;-56
2020/12/30 11:00:11;;;;;;;14.43;11.23;;;;;;;;;;5042539;28;20424;-56
2020/12/30 11:02:37;;;;;;;15.50;12.70;;;;;;;;;;5052473;28;20516;-56
2020/12/30 11:05:04;;;;;;;16.63;11.63;;;;;;;;;;5056608;28;20465;-56
2020/12/30 11:07:30;;;;;;;19.27;12.33;;;;;;;;;;5040830;28;20427;-56
2020/12/30 11:09:56;;;;;;;19.63;13.03;;;;;;;;;;5058583;28;20173;-58
2020/12/30 11:12:22;;;;;;;16.00;12.17;;;;;;;;;;5064347;28;20609;-59
2020/12/30 11:14:48;;;;;;;17.20;12.33;;;;;;;;;;5064307;28;20449;-56
2020/12/30 11:17:14;;;;;;;17.77;11.90;;;;;;;;;;5070156;28;20427;-58
2020/12/30 11:19:40;;;;;;;15.00;11.50;;;;;;;;;;5044723;28;20469;-57
2020/12/30 11:22:06;;;;;;;19.03;11.47;;;;;;;;;;5058159;28;20883;-56
2020/12/30 11:24:33;;;;;;;15.73;12.17;;;;;;;;;;5042302;28;20244;-56
2020/12/30 11:26:59;;;;;;;16.77;11.47;;;;;;;;;;5054531;28;20796;-58
2020/12/30 11:29:25;;;;;;;15.47;10.97;;;;;;;;;;5059463;28;20902;-56
2020/12/30 11:31:51;;;;;;;15.43;12.00;;;;;;;;;;5061903;28;20238;-57
2020/12/30 11:34:17;;;;;;;15.90;11.40;;;;;;;;;;5068702;28;20711;-56
2020/12/30 11:36:44;;;;;;;15.97;12.33;;;;;;;;;;5072781;28;20251;-57
2020/12/30 11:39:10;;;;;;;17.87;11.77;;;;;;;;;;5037002;28;20424;-57
2020/12/30 11:41:36;;;;;;;13.63;10.40;;;;;;;;;;5065680;28;20419;-57
2020/12/30 11:44:02;;;;;;;15.80;11.47;;;;;;;;;;5061506;28;20200;-57
2020/12/30 11:46:28;;;;;;;15.13;11.77;;;;;;;;;;5052702;28;20436;-57
2020/12/30 11:48:54;;;;;;;15.97;11.50;;;;;;;;;;5052543;28;21090;-58
2020/12/30 11:51:21;;;;;;;15.93;11.57;;;;;;;;;;5052415;28;20794;-57
2020/12/30 11:53:47;;;;;;;15.23;11.23;;;;;;;;;;5047852;28;20429;-57
2020/12/30 11:56:23;;;;;;;14.33;10.83;;;;;;;;;;5063791;28;20423;-57
2020/12/30 11:58:49;;;;;;;11.27;9.33;;;;;;;;;;5036118;28;20794;-56
2020/12/30 12:01:15;;;;;;;16.93;11.87;;;;;;;;;;5054026;28;20406;-57
2020/12/30 12:03:41;;;;;;;15.27;11.13;;;;;;;;;;5071567;28;20434;-57
2020/12/30 12:06:07;;;;;;;16.00;11.60;;;;;;;;;;5053985;28;20846;-57
2020/12/30 12:08:33;;;;;;;16.43;12.30;;;;;;;;;;5072481;28;20411;-57
2020/12/30 12:10:59;;;;;;;15.60;12.20;;;;;;;;;;5052258;28;20181;-58
2020/12/30 12:13:25;;;;;;;15.10;11.37;;;;;;;;;;5039193;28;20189;-57
2020/12/30 12:15:51;;;;;;;15.00;11.10;;;;;;;;;;5052049;28;20548;-57
2020/12/30 12:18:17;;;;;;;14.70;10.77;;;;;;;;;;5034003;28;20193;-57
2020/12/30 12:20:43;;;;;;;16.60;11.83;;;;;;;;;;5058169;28;20434;-56
2020/12/30 12:23:09;;;;;;;12.97;10.37;;;;;;;;;;5047945;28;21179;-57
2020/12/30 12:25:35;;;;;;;14.17;10.97;;;;;;;;;;5076247;28;20262;-57
2020/12/30 12:28:01;;;;;;;16.63;11.53;;;;;;;;;;5079853;28;20248;-57
2020/12/30 12:30:27;;;;;;;13.83;10.80;;;;;;;;;;5065808;28;20287;-57
2020/12/30 12:32:55;;;;;;;13.67;11.27;;;;;;;;;;5066647;28;20417;-57
2020/12/30 12:35:21;;;;;;;15.77;11.67;;;;;;;;;;5073079;28;20661;-57
2020/12/30 12:38:04;;;;;;;15.30;11.90;;;;;;;;;;5045608;28;20666;-56
2020/12/30 12:40:30;;;;;;;15.57;11.50;;;;;;;;;;5040945;28;20439;-58
2020/12/30 12:42:56;;;;;;;16.90;12.87;;;;;;;;;;5036873;28;20503;-57
2020/12/30 12:45:22;;;;;;;16.43;12.30;;;;;;;;;;5047194;28;20481;-60
2020/12/30 12:47:48;;;;;;;15.07;11.33;;;;;;;;;;5056351;28;20435;-57
2020/12/30 12:50:14;;;;;;;16.57;11.33;;;;;;;;;;5057979;28;20184;-57
2020/12/30 12:52:40;;;;;;;16.63;11.57;;;;;;;;;;5036736;28;20205;-58
2020/12/30 12:55:06;;;;;;;17.37;12.93;;;;;;;;;;5043553;28;20204;-58
2020/12/30 12:57:32;;;;;;;17.67;11.10;;;;;;;;;;5041184;28;20584;-57
2020/12/30 12:59:58;;;;;;;17.00;11.47;;;;;;;;;;5043930;28;20184;-57
2020/12/30 13:02:24;;;;;;;16.60;12.27;;;;;;;;;;5058282;28;20557;-57
2020/12/30 13:04:50;;;;;;;13.30;10.57;;;;;;;;;;5057855;28;20292;-57
2020/12/30 13:07:16;;;;;;;15.33;11.67;;;;;;;;;;5037717;28;20188;-57
2020/12/30 13:09:42;;;;;;;13.87;11.03;;;;;;;;;;5061724;28;20177;-57
2020/12/30 13:12:08;;;;;;;16.83;11.83;;;;;;;;;;5045865;28;20219;-58
2020/12/30 13:14:34;;;;;;;13.97;10.87;;;;;;;;;;5062282;28;20192;-57
2020/12/30 13:17:00;;;;;;;14.63;10.97;;;;;;;;;;5070787;28;20226;-57
2020/12/30 13:19:26;;;;;;;18.57;10.93;;;;;;;;;;5056721;28;20270;-57
2020/12/30 13:21:52;;;;;;;14.73;12.03;;;;;;;;;;5054988;28;20243;-57
2020/12/30 13:24:18;;;;;;;13.27;11.40;;;;;;;;;;5054097;28;20729;-57
2020/12/30 13:26:44;;;;;;;18.37;10.97;;;;;;;;;;5055405;28;20177;-58
2020/12/30 13:29:10;;;;;;;15.47;10.87;;;;;;;;;;5054561;28;20431;-58
2020/12/30 13:31:36;;;;;;;13.57;11.47;;;;;;;;;;5023894;28;20449;-61
2020/12/30 13:34:02;;;;;;;17.00;11.03;;;;;;;;;;5026105;28;20489;-58
2020/12/30 13:36:29;;;;;;;16.17;11.30;;;;;;;;;;5041984;28;20499;-58
2020/12/30 13:38:55;;;;;;;14.27;11.53;;;;;;;;;;5041479;28;20439;-57
2020/12/30 13:41:22;;;;;;;16.30;11.03;;;;;;;;;;5070580;28;20176;-58
2020/12/30 13:43:48;;;;;;;14.07;11.20;;;;;;;;;;5051850;28;20542;-57
2020/12/30 13:46:15;;;;;;;17.03;10.90;;;;;;;;;;5070849;28;20403;-57
2020/12/30 13:48:41;;;;;;;17.40;12.20;;;;;;;;;;5070240;28;20425;-60
2020/12/30 13:51:08;;;;;;;12.37;10.43;;;;;;;;;;5051001;28;20185;-57
2020/12/30 13:53:34;;;;;;;15.83;11.23;;;;;;;;;;5053622;28;20447;-57
2020/12/30 13:56:01;;;;;;;14.20;11.43;;;;;;;;;;5036673;28;20419;-56
2020/12/30 13:58:27;;;;;;;15.53;10.80;;;;;;;;;;5064459;28;20181;-57
2020/12/30 14:00:53;;;;;;;14.40;10.80;;;;;;;;;;5061424;28;20435;-57
2020/12/30 14:03:19;;;;;;;14.83;11.90;;;;;;;;;;5032745;28;20567;-57
2020/12/30 14:05:46;;;;;;;16.77;12.33;;;;;;;;;;5034452;28;20448;-57
2020/12/30 14:08:12;;;;;;;16.00;11.83;;;;;;;;;;5034402;28;20475;-57
2020/12/30 14:10:40;;;;;;;16.03;11.77;;;;;;;;;;5033468;28;20449;-57
2020/12/30 14:13:10;;;;;;;18.07;12.07;;;;;;;;;;5034749;28;20420;-57
2020/12/30 14:15:36;;;;;;;16.00;12.93;;;;;;;;;;5035173;28;20849;-57
2020/12/30 14:18:05;;;;;;;14.40;11.27;;;;;;;;;;5033114;28;20527;-57
2020/12/30 14:20:31;;;;;;;15.30;11.90;;;;;;;;;;5046513;28;20517;-59
2020/12/30 14:22:57;;;;;;;12.73;11.13;;;;;;;;;;5053494;28;20898;-57
2020/12/30 14:25:23;;;;;;;13.37;11.10;;;;;;;;;;5037749;28;20514;-57
2020/12/30 14:27:51;;;;;;;15.10;11.60;;;;;;;;;;5031682;28;20428;-57
2020/12/30 14:30:17;;;;;;;14.47;11.57;;;;;;;;;;5039159;28;20440;-57